createdAt,value
2022-09-17T00:00:37.385Z,99902.75
2022-09-17T00:05:39.493Z,99910.53
2022-09-17T00:10:43.814Z,99920.19
2022-09-17T00:15:47.427Z,99914.72
2022-09-17T00:20:49.065Z,99926.28
2022-09-17T00:25:50.734Z,99916.44
2022-09-17T00:30:53.787Z,99927.81
2022-09-17T00:35:59.676Z,99921.91
2022-09-17T00:41:02.892Z,99928.69
2022-09-17T00:46:16.931Z,99941.00
2022-09-17T00:51:23.255Z,99938.06
2022-09-17T00:56:28.333Z,99953.34
2022-09-17T01:01:32.432Z,99958.63
2022-09-17T01:06:41.553Z,99960.31
2022-09-17T01:11:57.468Z,99945.88
2022-09-17T01:17:13.380Z,99960.19
2022-09-17T01:22:20.521Z,99963.84
2022-09-17T01:27:58.918Z,99961.91
2022-09-17T01:33:12.709Z,99953.06
2022-09-17T01:38:25.493Z,99954.38
2022-09-17T01:43:34.393Z,99953.72
2022-09-17T01:48:41.902Z,99953.78
2022-09-17T01:53:48.902Z,99962.56
2022-09-17T01:58:58.082Z,99962.50
2022-09-17T02:04:08.007Z,99973.13
2022-09-17T02:09:15.647Z,99967.78
2022-09-17T02:14:21.917Z,99973.75
2022-09-17T02:19:28.166Z,99968.44
2022-09-17T02:24:37.811Z,99965.88
2022-09-17T02:29:43.619Z,99964.78
2022-09-17T02:34:46.814Z,99968.63
2022-09-17T02:39:48.617Z,99972.06
2022-09-17T02:45:03.230Z,99973.88
2022-09-17T02:50:24.561Z,99966.72
2022-09-17T02:55:35.955Z,99970.38
2022-09-17T03:00:38.026Z,99967.53
2022-09-17T03:05:42.841Z,99966.63
2022-09-17T03:10:44.993Z,99961.31
2022-09-17T03:15:46.682Z,99966.31
2022-09-17T03:20:50.040Z,99965.78
2022-09-17T03:25:51.711Z,99964.00
2022-09-17T03:30:54.080Z,99972.13
2022-09-17T03:35:57.311Z,99969.59
2022-09-17T03:40:59.551Z,99978.50
2022-09-17T03:46:01.614Z,99967.00
2022-09-17T03:51:06.238Z,99958.00
2022-09-17T03:56:08.270Z,99960.84
2022-09-17T04:01:10.239Z,99978.28
2022-09-17T04:06:13.234Z,99967.69
2022-09-17T04:11:14.875Z,99972.16
2022-09-17T04:16:16.587Z,99971.44
2022-09-17T04:21:19.649Z,99987.41
2022-09-17T04:26:21.454Z,99988.44
2022-09-17T04:31:23.186Z,99981.06
2022-09-17T04:36:26.197Z,99983.50
2022-09-17T04:41:28.071Z,99988.69
2022-09-17T04:46:30.031Z,99987.41
2022-09-17T04:51:33.191Z,99987.25
2022-09-17T04:56:34.858Z,99987.06
2022-09-17T05:01:36.731Z,99992.53
2022-09-17T05:06:39.808Z,100010.13
2022-09-17T05:11:41.690Z,100002.03
2022-09-17T05:16:43.398Z,100009.06
2022-09-17T05:21:46.548Z,99999.53
2022-09-17T05:26:48.216Z,100007.97
2022-09-17T05:31:49.897Z,100020.38
2022-09-17T05:36:52.966Z,100018.53
2022-09-17T05:41:55.418Z,100032.69
2022-09-17T05:46:57.860Z,100030.84
2022-09-17T05:52:04.110Z,100039.53
2022-09-17T05:57:05.957Z,100053.66
2022-09-17T06:02:07.647Z,100048.06
2022-09-17T06:07:10.644Z,100051.63
2022-09-17T06:12:12.431Z,100051.44
2022-09-17T06:17:16.185Z,100060.44
2022-09-17T06:22:22.510Z,100073.53
2022-09-17T06:27:24.128Z,100078.97
2022-09-17T06:32:26.084Z,100074.31
2022-09-17T06:37:29.648Z,100070.00
2022-09-17T06:42:31.499Z,100065.84
2022-09-17T06:47:33.890Z,100072.00
2022-09-17T06:52:36.805Z,100069.03
2022-09-17T06:57:38.374Z,100075.22
2022-09-17T07:02:40.017Z,100075.13
2022-09-17T07:07:43.426Z,100081.31
2022-09-17T07:12:49.671Z,100071.09
2022-09-17T07:17:51.718Z,100081.63
2022-09-17T07:22:58.062Z,100094.13
2022-09-17T07:27:59.805Z,100083.97
2022-09-17T07:33:01.837Z,100085.78
2022-09-17T07:38:04.908Z,100080.31
2022-09-17T07:43:06.566Z,100092.09
2022-09-17T07:48:08.572Z,100086.50
2022-09-17T07:53:11.573Z,100093.50
2022-09-17T07:58:14.248Z,100098.06
2022-09-17T08:03:16.890Z,100097.19
2022-09-17T08:08:21.363Z,100085.72
2022-09-17T08:13:23.596Z,100086.66
2022-09-17T08:18:25.600Z,100095.22
2022-09-17T08:23:30.237Z,100089.44
2022-09-17T08:28:32.037Z,100087.22
2022-09-17T08:33:36.941Z,100085.66
2022-09-17T08:38:40.508Z,100095.22
2022-09-17T08:43:50.052Z,100093.59
2022-09-17T08:49:01.470Z,100101.19
2022-09-17T08:54:13.123Z,100101.50
2022-09-17T08:59:23.934Z,100091.19
2022-09-17T09:04:57.044Z,100101.13
2022-09-17T09:10:10.643Z,100091.19
2022-09-17T09:15:25.226Z,100100.00
2022-09-17T09:20:31.065Z,100105.09
2022-09-17T09:25:41.109Z,100106.06
2022-09-17T09:30:55.530Z,100127.09
2022-09-17T09:35:57.387Z,100128.69
2022-09-17T09:41:09.476Z,100130.66
2022-09-17T09:46:29.327Z,100127.88
2022-09-17T09:51:40.670Z,100144.31
2022-09-17T09:56:54.116Z,100132.13
2022-09-17T10:01:55.847Z,100137.34
2022-09-17T10:07:02.535Z,100142.53
2022-09-17T10:12:17.483Z,100139.09
2022-09-17T10:17:23.683Z,100142.53
2022-09-17T10:22:30.494Z,100148.16
2022-09-17T10:27:34.637Z,100146.09
2022-09-17T10:32:36.360Z,100139.22
2022-09-17T10:37:46.751Z,100156.50
2022-09-17T10:42:51.575Z,100157.75
2022-09-17T10:47:55.370Z,100157.72
2022-09-17T10:53:01.852Z,100160.97
2022-09-17T10:58:18.248Z,100161.00
2022-09-17T11:03:47.473Z,100172.19
2022-09-17T11:09:04.029Z,100180.75
2022-09-17T11:14:20.407Z,100186.22
2022-09-17T11:19:33.393Z,100173.72
2022-09-17T11:25:07.571Z,100167.00
2022-09-17T11:30:17.083Z,100160.84
2022-09-17T11:35:23.691Z,100166.84
2022-09-17T11:40:34.997Z,100159.16
2022-09-17T11:45:41.202Z,100154.44
2022-09-17T11:50:47.363Z,100156.28
2022-09-17T11:55:54.630Z,100146.22
2022-09-17T12:01:06.862Z,100142.78
2022-09-17T12:06:14.530Z,100132.22
2022-09-17T12:11:20.512Z,100139.31
2022-09-17T12:16:27.231Z,100146.91
2022-09-17T12:21:33.340Z,100136.53
2022-09-17T12:26:57.171Z,100118.50
2022-09-17T12:32:05.635Z,100102.25
2022-09-17T12:37:15.026Z,100109.19
2022-09-17T12:42:32.843Z,100107.19
2022-09-17T12:47:55.640Z,100099.28
2022-09-17T12:53:14.322Z,100104.63
2022-09-17T12:58:29.763Z,100107.03
2022-09-17T13:03:40.075Z,100105.94
2022-09-17T13:09:06.553Z,100118.75
2022-09-17T13:14:17.299Z,100117.31
2022-09-17T13:19:30.842Z,100113.50
2022-09-17T13:24:34.118Z,100101.38
2022-09-17T13:29:58.284Z,100099.03
2022-09-17T13:35:45.158Z,100089.69
2022-09-17T13:40:47.507Z,100103.97
2022-09-17T13:46:22.944Z,100092.53
2022-09-17T13:51:54.318Z,100084.56
2022-09-17T13:57:15.109Z,100079.19
2022-09-17T14:02:35.893Z,100082.38
2022-09-17T14:07:47.310Z,100085.47
2022-09-17T14:12:54.126Z,100092.78
2022-09-17T14:17:55.759Z,100109.34
2022-09-17T14:23:00.702Z,100134.31
2022-09-17T14:28:09.643Z,100132.19
2022-09-17T14:33:16.946Z,100141.53
2022-09-17T14:38:23.417Z,100151.31
2022-09-17T14:43:37.814Z,100124.97
2022-09-17T14:48:39.488Z,100132.13
2022-09-17T14:53:42.750Z,100124.97
2022-09-17T14:58:50.885Z,100129.25
2022-09-17T15:04:20.441Z,100117.72
2022-09-17T15:09:26.177Z,100122.28
2022-09-17T15:14:29.231Z,100117.31
2022-09-17T15:19:35.130Z,100120.66
2022-09-17T15:24:44.305Z,100125.88
2022-09-17T15:29:51.419Z,100131.47
2022-09-17T15:35:19.827Z,100129.00
2022-09-17T15:40:28.409Z,100127.66
2022-09-17T15:45:31.641Z,100123.53
2022-09-17T15:50:34.962Z,100125.78
2022-09-17T15:55:39.595Z,100117.84
2022-09-17T16:00:41.209Z,100101.75
2022-09-17T16:05:47.086Z,100096.06
2022-09-17T16:10:50.999Z,100112.81
2022-09-17T16:15:52.633Z,100114.25
2022-09-17T16:20:54.705Z,100114.91
2022-09-17T16:25:58.069Z,100116.63
2022-09-17T16:31:00.411Z,100122.06
2022-09-17T16:36:02.393Z,100124.66
2022-09-17T16:41:06.500Z,100127.16
2022-09-17T16:46:10.125Z,100127.75
2022-09-17T16:51:13.801Z,100136.00
2022-09-17T16:56:16.772Z,100127.38
2022-09-17T17:01:18.455Z,100130.25
2022-09-17T17:06:22.364Z,100123.28
2022-09-17T17:11:25.816Z,100121.56
2022-09-17T17:16:27.513Z,100124.31
2022-09-17T17:21:29.112Z,100110.34
2022-09-17T17:26:32.309Z,100113.00
2022-09-17T17:31:33.958Z,100107.94
2022-09-17T17:36:35.633Z,100108.09
2022-09-17T17:41:39.054Z,100102.78
2022-09-17T17:46:41.038Z,100101.97
2022-09-17T17:51:42.713Z,100112.06
2022-09-17T17:56:45.825Z,100121.44
2022-09-17T18:01:47.555Z,100121.97
2022-09-17T18:06:49.870Z,100119.75
2022-09-17T18:11:52.995Z,100118.13
2022-09-17T18:16:54.793Z,100118.28
2022-09-17T18:21:56.601Z,100114.75
2022-09-17T18:26:59.552Z,100116.81
2022-09-17T18:32:01.454Z,100107.84
2022-09-17T18:37:03.153Z,100105.25
2022-09-17T18:42:06.594Z,100117.59
2022-09-17T18:47:08.288Z,100117.75
2022-09-17T18:52:10.012Z,100113.31
2022-09-17T18:57:13.549Z,100127.38
2022-09-17T19:02:15.208Z,100122.88
2022-09-17T19:07:17.118Z,100108.69
2022-09-17T19:12:20.318Z,100114.00
2022-09-17T19:17:21.935Z,100113.75
2022-09-17T19:22:24.024Z,100118.28
2022-09-17T19:27:27.405Z,100112.34
2022-09-17T19:32:30.463Z,100113.97
2022-09-17T19:37:32.396Z,100107.53
2022-09-17T19:42:35.514Z,100105.88
2022-09-17T19:47:37.235Z,100106.72
2022-09-17T19:52:40.444Z,100117.19
2022-09-17T19:57:43.933Z,100108.13
2022-09-17T20:02:45.590Z,100108.09
2022-09-17T20:07:47.612Z,100115.81
2022-09-17T20:12:50.646Z,100114.03
2022-09-17T20:17:52.353Z,100115.72
2022-09-17T20:22:54.216Z,100107.91
2022-09-17T20:27:57.346Z,100110.59
2022-09-17T20:32:58.978Z,100117.50
2022-09-17T20:43:23.969Z,100107.06
2022-09-17T20:48:25.637Z,100109.72
2022-09-17T20:53:28.766Z,100107.94
2022-09-17T20:58:33.510Z,100107.94
2022-09-17T21:03:35.446Z,100107.09
2022-09-17T21:08:37.378Z,100105.06
2022-09-17T21:13:41.353Z,100100.81
2022-09-17T21:18:43.988Z,100111.53
2022-09-17T21:23:45.708Z,100122.06
2022-09-17T21:28:50.643Z,100112.41
2022-09-17T21:33:54.349Z,100105.28
2022-09-17T21:38:57.669Z,100112.28
2022-09-17T21:44:00.893Z,100115.50
2022-09-17T21:49:03.891Z,100109.53
2022-09-17T21:54:07.343Z,100123.53
2022-09-17T21:59:13.690Z,100121.78
2022-09-17T22:04:17.464Z,100118.94
2022-09-17T22:09:21.249Z,100121.50
2022-09-17T22:14:24.920Z,100122.53
2022-09-17T22:19:26.736Z,100103.84
2022-09-17T22:24:28.524Z,100108.09
2022-09-17T22:29:31.838Z,100117.78
2022-09-17T22:34:33.608Z,100106.13
2022-09-17T22:39:35.476Z,100108.72
2022-09-17T22:44:38.547Z,100108.72
2022-09-17T22:49:40.218Z,100110.94
2022-09-17T22:54:41.882Z,100113.22
2022-09-17T22:59:44.852Z,100108.81
2022-09-17T23:04:46.499Z,100113.25
2022-09-17T23:09:48.572Z,100101.56
2022-09-17T23:14:51.778Z,100105.78
2022-09-17T23:19:53.918Z,100104.69
2022-09-17T23:24:55.628Z,100096.97
2022-09-17T23:29:58.753Z,100100.41
2022-09-17T23:35:00.520Z,100105.72
2022-09-17T23:40:05.912Z,100105.03
2022-09-17T23:45:09.598Z,100106.03
2022-09-17T23:50:11.627Z,100114.03
2022-09-17T23:55:13.351Z,100111.28
